sensor_id;sensor_type;location;lat;lon;timestamp;temperature;humidity
9901;DHT22;4989;48.772;9.154;2022-07-23T00:14:12;29.10;55.50
9901;DHT22;4989;48.772;9.154;2022-07-23T00:19:14;25.80;57.10
9901;DHT22;4989;48.772;9.154;2022-07-23T00:24:16;25.60;57.40
9901;DHT22;4989;48.772;9.154;2022-07-23T00:29:18;25.60;57.70
9901;DHT22;4989;48.772;9.154;2022-07-23T00:34:20;25.40;58.10
9901;DHT22;4989;48.772;9.154;2022-07-23T00:39:22;25.30;57.80
9901;DHT22;4989;48.772;9.154;2022-07-23T00:44:27;25.20;61.30
9901;DHT22;4989;48.772;9.154;2022-07-23T00:49:30;24.70;65.70
9901;DHT22;4989;48.772;9.154;2022-07-23T00:54:32;24.30;67.70
9901;DHT22;4989;48.772;9.154;2022-07-23T00:59:34;24.20;69.10
9901;DHT22;4989;48.772;9.154;2022-07-23T01:04:36;24.00;68.80
9901;DHT22;4989;48.772;9.154;2022-07-23T01:09:39;23.80;69.70
9901;DHT22;4989;48.772;9.154;2022-07-23T01:14:42;23.90;69.30
9901;DHT22;4989;48.772;9.154;2022-07-23T01:19:44;23.90;68.40
9901;DHT22;4989;48.772;9.154;2022-07-23T01:24:46;24.00;68.20
9901;DHT22;4989;48.772;9.154;2022-07-23T01:29:51;24.00;69.10
9901;DHT22;4989;48.772;9.154;2022-07-23T01:34:58;23.80;69.60
9901;DHT22;4989;48.772;9.154;2022-07-23T01:40:00;23.70;69.70
9901;DHT22;4989;48.772;9.154;2022-07-23T01:45:04;24.50;68.60
9901;DHT22;4989;48.772;9.154;2022-07-23T01:50:08;24.70;66.20
9901;DHT22;4989;48.772;9.154;2022-07-23T01:55:20;24.90;66.40
9901;DHT22;4989;48.772;9.154;2022-07-23T02:00:24;25.60;64.70
9901;DHT22;4989;48.772;9.154;2022-07-23T02:05:27;25.10;64.00
9901;DHT22;4989;48.772;9.154;2022-07-23T02:10:36;24.10;68.40
9901;DHT22;4989;48.772;9.154;2022-07-23T02:15:38;24.80;68.10
9901;DHT22;4989;48.772;9.154;2022-07-23T02:20:41;25.80;65.60
9901;DHT22;4989;48.772;9.154;2022-07-23T02:25:43;26.00;63.90
9901;DHT22;4989;48.772;9.154;2022-07-23T02:30:45;25.10;64.30
9901;DHT22;4989;48.772;9.154;2022-07-23T02:35:47;25.50;63.50
9901;DHT22;4989;48.772;9.154;2022-07-23T02:40:52;24.30;67.70
9901;DHT22;4989;48.772;9.154;2022-07-23T02:45:54;24.30;68.60
9901;DHT22;4989;48.772;9.154;2022-07-23T02:50:58;24.10;68.20
9901;DHT22;4989;48.772;9.154;2022-07-23T02:56:07;23.70;69.80
9901;DHT22;4989;48.772;9.154;2022-07-23T03:01:09;23.70;70.40
9901;DHT22;4989;48.772;9.154;2022-07-23T03:06:11;23.90;69.70
9901;DHT22;4989;48.772;9.154;2022-07-23T03:11:14;24.50;68.00
9901;DHT22;4989;48.772;9.154;2022-07-23T03:16:18;24.60;67.70
9901;DHT22;4989;48.772;9.154;2022-07-23T03:21:20;23.90;70.00
9901;DHT22;4989;48.772;9.154;2022-07-23T03:26:22;24.10;69.30
9901;DHT22;4989;48.772;9.154;2022-07-23T03:31:27;24.70;66.70
9901;DHT22;4989;48.772;9.154;2022-07-23T03:36:29;25.30;65.00
9901;DHT22;4989;48.772;9.154;2022-07-23T03:41:33;25.20;64.70
9901;DHT22;4989;48.772;9.154;2022-07-23T03:46:35;25.10;65.40
9901;DHT22;4989;48.772;9.154;2022-07-23T03:51:37;25.70;63.20
9901;DHT22;4989;48.772;9.154;2022-07-23T03:56:39;25.00;64.50
9901;DHT22;4989;48.772;9.154;2022-07-23T04:01:42;24.40;66.40
9901;DHT22;4989;48.772;9.154;2022-07-23T04:06:44;24.40;68.20
9901;DHT22;4989;48.772;9.154;2022-07-23T04:11:46;25.20;64.30
9901;DHT22;4989;48.772;9.154;2022-07-23T04:16:48;25.60;62.70
9901;DHT22;4989;48.772;9.154;2022-07-23T04:21:50;24.80;64.40
9901;DHT22;4989;48.772;9.154;2022-07-23T04:26:53;23.90;68.30
9901;DHT22;4989;48.772;9.154;2022-07-23T04:31:55;23.40;70.60
9901;DHT22;4989;48.772;9.154;2022-07-23T04:36:57;23.50;70.80
9901;DHT22;4989;48.772;9.154;2022-07-23T04:42:01;23.40;71.30
9901;DHT22;4989;48.772;9.154;2022-07-23T04:47:05;23.20;72.00
9901;DHT22;4989;48.772;9.154;2022-07-23T04:52:07;23.30;71.60
9901;DHT22;4989;48.772;9.154;2022-07-23T04:57:10;23.30;71.80
9901;DHT22;4989;48.772;9.154;2022-07-23T05:02:12;23.30;71.70
9901;DHT22;4989;48.772;9.154;2022-07-23T05:07:14;23.20;72.00
9901;DHT22;4989;48.772;9.154;2022-07-23T05:12:16;23.20;71.90
9901;DHT22;4989;48.772;9.154;2022-07-23T05:17:19;23.40;71.40
9901;DHT22;4989;48.772;9.154;2022-07-23T05:22:21;23.20;72.50
9901;DHT22;4989;48.772;9.154;2022-07-23T05:27:23;23.20;72.20
9901;DHT22;4989;48.772;9.154;2022-07-23T05:32:26;23.40;71.40
9901;DHT22;4989;48.772;9.154;2022-07-23T05:37:39;23.40;71.90
9901;DHT22;4989;48.772;9.154;2022-07-23T05:42:41;23.50;71.10
9901;DHT22;4989;48.772;9.154;2022-07-23T05:47:47;23.40;71.70
9901;DHT22;4989;48.772;9.154;2022-07-23T05:52:59;23.70;70.80
9901;DHT22;4989;48.772;9.154;2022-07-23T05:58:27;24.10;70.30
9901;DHT22;4989;48.772;9.154;2022-07-23T06:03:29;25.00;67.30
9901;DHT22;4989;48.772;9.154;2022-07-23T06:08:32;25.50;66.50
9901;DHT22;4989;48.772;9.154;2022-07-23T06:13:35;25.80;65.30
9901;DHT22;4989;48.772;9.154;2022-07-23T06:18:37;26.10;63.60
9901;DHT22;4989;48.772;9.154;2022-07-23T06:23:42;26.20;61.90
9901;DHT22;4989;48.772;9.154;2022-07-23T06:28:44;26.30;62.20
9901;DHT22;4989;48.772;9.154;2022-07-23T06:33:47;26.50;60.60
9901;DHT22;4989;48.772;9.154;2022-07-23T07:19:12;26.60;62.50
9901;DHT22;4989;48.772;9.154;2022-07-23T07:24:14;26.50;62.60
9901;DHT22;4989;48.772;9.154;2022-07-23T07:29:16;26.40;61.70
9901;DHT22;4989;48.772;9.154;2022-07-23T07:34:19;26.40;61.60
9901;DHT22;4989;48.772;9.154;2022-07-23T07:39:21;26.50;61.60
9901;DHT22;4989;48.772;9.154;2022-07-23T07:44:23;26.50;61.90
9901;DHT22;4989;48.772;9.154;2022-07-23T07:49:25;26.70;62.00
9901;DHT22;4989;48.772;9.154;2022-07-23T07:54:33;27.00;61.20
9901;DHT22;4989;48.772;9.154;2022-07-23T07:59:37;27.10;60.70
9901;DHT22;4989;48.772;9.154;2022-07-23T08:14:44;27.20;60.60
9901;DHT22;4989;48.772;9.154;2022-07-23T08:19:46;27.70;59.30
9901;DHT22;4989;48.772;9.154;2022-07-23T08:24:49;27.40;59.10
9901;DHT22;4989;48.772;9.154;2022-07-23T08:29:51;27.30;59.40
9901;DHT22;4989;48.772;9.154;2022-07-23T08:34:53;27.10;59.40
